createdAt,value
2022-11-24T00:00:06.401Z,8.55
2022-11-24T00:02:56.224Z,9.68
2022-11-24T00:05:44.666Z,8.80
2022-11-24T00:08:33.034Z,9.65
2022-11-24T00:11:23.251Z,9.13
2022-11-24T00:14:11.679Z,9.27
2022-11-24T00:17:00.020Z,9.35
2022-11-24T00:19:49.911Z,8.82
2022-11-24T00:22:38.314Z,8.75
2022-11-24T00:25:26.671Z,8.25
2022-11-24T00:28:14.969Z,8.55
2022-11-24T00:31:03.999Z,8.80
2022-11-24T00:33:54.801Z,9.02
2022-11-24T00:36:44.736Z,9.32
2022-11-24T00:39:33.090Z,8.98
2022-11-24T00:42:21.477Z,8.73
2022-11-24T00:45:14.103Z,9.30
2022-11-24T00:48:02.728Z,9.05
2022-11-24T00:50:58.170Z,9.18
2022-11-24T00:53:48.096Z,8.75
2022-11-24T00:56:36.387Z,8.60
2022-11-24T00:59:24.731Z,8.48
2022-11-24T01:02:13.150Z,8.68
2022-11-24T01:05:02.264Z,8.52
2022-11-24T01:07:50.689Z,8.55
2022-11-24T01:10:40.474Z,8.02
2022-11-24T01:13:28.835Z,9.75
2022-11-24T01:16:19.321Z,7.88
2022-11-24T01:19:07.672Z,6.72
2022-11-24T01:21:56.051Z,8.70
2022-11-24T01:24:45.704Z,8.73
2022-11-24T01:27:35.566Z,8.82
2022-11-24T01:30:23.875Z,8.68
2022-11-24T01:33:12.197Z,9.93
2022-11-24T01:36:00.597Z,8.95
2022-11-24T01:38:49.345Z,9.00
2022-11-24T01:41:37.705Z,8.60
2022-11-24T01:44:28.649Z,8.88
2022-11-24T01:47:34.549Z,7.72
2022-11-24T01:50:23.526Z,8.52
2022-11-24T01:53:13.358Z,8.57
2022-11-24T01:56:01.913Z,9.07
2022-11-24T01:58:52.777Z,8.20
2022-11-24T02:01:43.312Z,8.40
2022-11-24T02:04:35.831Z,8.10
2022-11-24T02:07:24.481Z,8.63
2022-11-24T02:10:15.514Z,8.60
2022-11-24T02:13:04.742Z,8.75
2022-11-24T02:15:54.276Z,8.40
2022-11-24T02:18:44.874Z,9.45
2022-11-24T02:21:33.255Z,7.97
2022-11-24T02:24:27.711Z,8.65
2022-11-24T02:27:17.515Z,9.30
2022-11-24T02:30:06.642Z,8.38
2022-11-24T02:32:55.255Z,9.23
2022-11-24T02:35:43.939Z,8.05
2022-11-24T02:38:34.084Z,8.55
2022-11-24T02:41:26.386Z,8.63
2022-11-24T02:44:17.640Z,8.40
2022-11-24T02:49:55.282Z,8.70
2022-11-24T02:52:43.651Z,8.57
2022-11-24T02:55:32.059Z,9.05
2022-11-24T02:58:20.446Z,8.80
2022-11-24T03:01:10.190Z,9.35
2022-11-24T03:03:58.620Z,8.68
2022-11-24T03:06:46.989Z,9.25
2022-11-24T03:09:35.564Z,9.30
2022-11-24T03:12:23.955Z,8.88
2022-11-24T03:15:12.466Z,8.65
2022-11-24T03:18:02.271Z,9.07
2022-11-24T03:20:50.747Z,9.32
2022-11-24T03:23:39.132Z,9.80
2022-11-24T03:26:27.989Z,10.52
2022-11-24T03:29:16.931Z,9.93
2022-11-24T03:32:05.864Z,10.30
2022-11-24T03:34:55.930Z,9.60
2022-11-24T03:37:44.665Z,9.73
2022-11-24T03:40:33.321Z,10.00
2022-11-24T03:43:22.048Z,9.43
2022-11-24T03:46:10.560Z,9.52
2022-11-24T03:48:58.944Z,9.70
2022-11-24T03:51:48.808Z,9.60
2022-11-24T03:54:37.192Z,9.63
2022-11-24T03:57:25.581Z,9.40
2022-11-24T04:00:14.717Z,8.95
2022-11-24T04:03:03.145Z,8.95
2022-11-24T04:05:51.929Z,8.70
2022-11-24T04:08:41.652Z,9.82
2022-11-24T04:11:47.540Z,9.20
2022-11-24T04:14:36.231Z,9.55
2022-11-24T04:17:24.889Z,9.18
2022-11-24T04:20:14.266Z,8.05
2022-11-24T04:23:02.963Z,8.52
2022-11-24T04:25:52.712Z,9.70
2022-11-24T04:28:41.263Z,9.32
2022-11-24T04:31:29.634Z,9.73
2022-11-24T04:34:18.007Z,9.93
2022-11-24T04:37:06.738Z,9.48
2022-11-24T04:39:55.982Z,9.75
2022-11-24T04:42:52.748Z,9.43
2022-11-24T04:45:41.094Z,9.30
2022-11-24T04:48:29.505Z,9.20
2022-11-24T04:51:17.844Z,9.18
2022-11-24T04:54:06.342Z,9.05
2022-11-24T04:56:54.800Z,9.77
2022-11-24T04:59:44.536Z,9.00
2022-11-24T05:02:32.916Z,9.73
2022-11-24T05:05:21.227Z,8.75
2022-11-24T05:08:10.073Z,10.02
2022-11-24T05:10:58.629Z,10.05
2022-11-24T05:13:47.364Z,10.75
2022-11-24T05:16:37.930Z,9.80
2022-11-24T05:19:29.836Z,9.65
2022-11-24T05:22:20.712Z,10.25
2022-11-24T05:25:09.744Z,9.85
2022-11-24T05:28:01.269Z,10.27
2022-11-24T05:30:49.601Z,9.73
2022-11-24T05:33:39.564Z,9.48
2022-11-24T05:36:45.455Z,10.05
2022-11-24T05:39:34.666Z,10.07
2022-11-24T05:42:46.251Z,10.57
2022-11-24T05:45:35.867Z,10.10
2022-11-24T05:48:24.234Z,9.40
2022-11-24T05:51:14.152Z,9.90
2022-11-24T05:54:02.539Z,9.60
2022-11-24T05:56:50.955Z,9.32
2022-11-24T05:59:39.305Z,9.90
2022-11-24T06:02:28.080Z,10.43
2022-11-24T06:05:16.713Z,9.65
2022-11-24T06:08:06.703Z,10.23
2022-11-24T06:10:55.103Z,9.77
2022-11-24T06:13:43.661Z,10.05
2022-11-24T06:16:32.313Z,10.18
2022-11-24T06:19:20.639Z,10.25
2022-11-24T06:22:09.020Z,10.18
2022-11-24T06:24:58.780Z,10.00
2022-11-24T06:27:47.101Z,9.70
2022-11-24T06:30:35.483Z,9.70
2022-11-24T06:33:23.821Z,10.07
2022-11-24T06:36:14.872Z,9.85
2022-11-24T06:39:03.569Z,10.20
2022-11-24T06:41:54.037Z,10.68
2022-11-24T06:44:42.353Z,9.98
2022-11-24T06:47:30.710Z,10.00
2022-11-24T06:50:19.087Z,10.55
2022-11-24T06:53:07.967Z,12.23
2022-11-24T06:56:00.051Z,10.98
2022-11-24T06:58:51.345Z,11.25
2022-11-24T07:01:39.772Z,11.85
2022-11-24T07:04:28.208Z,12.52
2022-11-24T07:07:16.666Z,11.70
2022-11-24T07:10:05.678Z,11.48
2022-11-24T07:12:54.027Z,11.57
2022-11-24T07:15:43.762Z,11.02
2022-11-24T07:18:32.141Z,10.55
2022-11-24T07:21:22.532Z,10.45
2022-11-24T07:24:11.050Z,10.57
2022-11-24T07:26:59.563Z,11.98
2022-11-24T07:29:47.895Z,12.88
2022-11-24T07:32:37.621Z,12.45
2022-11-24T07:35:26.100Z,10.98
2022-11-24T07:38:14.423Z,10.88
2022-11-24T07:41:03.144Z,11.73
2022-11-24T07:43:52.000Z,11.32
2022-11-24T07:46:40.365Z,12.30
2022-11-24T07:49:30.078Z,12.95
2022-11-24T07:52:18.423Z,12.88
2022-11-24T07:55:08.002Z,12.25
2022-11-24T07:57:59.601Z,11.82
2022-11-24T08:00:48.000Z,12.13
2022-11-24T08:03:37.251Z,11.18
2022-11-24T08:06:36.206Z,12.27
2022-11-24T08:09:27.850Z,12.07
2022-11-24T08:12:17.453Z,12.32
2022-11-24T08:15:11.007Z,12.73
2022-11-24T08:18:02.637Z,11.40
2022-11-24T08:23:40.608Z,11.43
2022-11-24T08:26:29.085Z,12.18
2022-11-24T08:29:17.447Z,12.38
2022-11-24T08:32:06.401Z,10.27
2022-11-24T08:34:59.625Z,11.68
2022-11-24T08:38:01.673Z,11.60
2022-11-24T08:40:54.178Z,11.20
2022-11-24T08:43:43.001Z,11.60
2022-11-24T08:46:31.528Z,11.52
2022-11-24T08:49:21.608Z,11.30
2022-11-24T08:52:10.051Z,10.43
2022-11-24T08:54:58.381Z,11.25
2022-11-24T08:57:48.154Z,10.88
2022-11-24T09:00:36.526Z,10.82
2022-11-24T09:03:24.977Z,10.73
2022-11-24T09:06:13.352Z,10.45
2022-11-24T09:09:01.745Z,10.88
2022-11-24T09:11:50.060Z,10.68
2022-11-24T09:14:39.721Z,10.30
2022-11-24T09:17:28.060Z,11.05
2022-11-24T09:20:16.977Z,11.05
2022-11-24T09:23:05.302Z,10.48
2022-11-24T09:25:53.643Z,10.93
2022-11-24T09:28:42.213Z,10.07
2022-11-24T09:31:35.408Z,10.27
2022-11-24T09:34:23.871Z,10.32
2022-11-24T09:37:12.201Z,10.90
2022-11-24T09:40:00.538Z,11.25
2022-11-24T09:42:59.841Z,9.95
2022-11-24T09:46:11.658Z,11.02
2022-11-24T09:49:05.151Z,11.50
2022-11-24T09:51:55.398Z,11.10
2022-11-24T09:54:51.395Z,10.93
2022-11-24T09:57:43.886Z,11.32
2022-11-24T10:00:34.508Z,11.05
2022-11-24T10:03:28.541Z,9.82
2022-11-24T10:06:24.315Z,8.73
2022-11-24T10:09:41.928Z,8.55
2022-11-24T10:12:40.230Z,8.30
2022-11-24T10:15:39.521Z,9.43
2022-11-24T10:18:56.094Z,8.90
2022-11-24T10:22:06.136Z,8.68
2022-11-24T10:25:14.006Z,8.25
2022-11-24T10:28:06.157Z,8.77
2022-11-24T10:31:11.312Z,8.05
2022-11-24T10:34:04.126Z,11.75
2022-11-24T10:37:01.458Z,16.05
2022-11-24T10:40:00.060Z,14.75
2022-11-24T10:42:48.918Z,11.43
2022-11-24T10:45:39.367Z,11.30
2022-11-24T10:48:30.424Z,11.20
2022-11-24T10:51:42.713Z,11.30
2022-11-24T10:54:33.047Z,10.57
2022-11-24T10:57:29.556Z,7.53
2022-11-24T11:00:35.901Z,9.95
2022-11-24T11:03:26.497Z,10.75
2022-11-24T11:06:16.220Z,9.18
2022-11-24T11:09:20.169Z,8.90
2022-11-24T11:15:31.658Z,8.55
2022-11-24T11:18:21.671Z,8.82
2022-11-24T11:21:29.666Z,9.95
2022-11-24T11:24:19.619Z,9.57
2022-11-24T11:27:21.750Z,9.68
2022-11-24T11:36:47.588Z,9.20
2022-11-24T11:39:37.694Z,6.95
2022-11-24T11:45:46.705Z,6.15
2022-11-24T11:48:43.612Z,6.43
2022-11-24T11:51:47.046Z,5.32
2022-11-24T11:54:50.756Z,5.75
2022-11-24T11:57:48.128Z,4.55
2022-11-24T12:00:45.157Z,4.70
2022-11-24T12:03:47.352Z,5.43
2022-11-24T12:06:50.832Z,5.28
2022-11-24T12:09:50.876Z,3.47
2022-11-24T12:13:01.687Z,4.18
2022-11-24T12:15:52.686Z,3.33
2022-11-24T12:18:57.466Z,3.80
2022-11-24T12:21:55.348Z,3.75
2022-11-24T12:24:53.126Z,3.85
2022-11-24T12:27:52.067Z,2.95
2022-11-24T12:30:51.724Z,3.80
2022-11-24T12:34:15.419Z,3.20
2022-11-24T12:37:23.814Z,3.40
2022-11-24T12:40:16.932Z,3.17
2022-11-24T12:43:14.616Z,3.47
2022-11-24T12:46:15.684Z,3.50
2022-11-24T12:49:14.858Z,4.97
2022-11-24T12:52:06.883Z,3.53
2022-11-24T12:54:57.030Z,3.92
2022-11-24T12:57:52.101Z,4.07
2022-11-24T13:00:54.409Z,3.42
2022-11-24T13:03:50.935Z,4.15
2022-11-24T13:06:50.369Z,3.55
2022-11-24T13:09:38.869Z,4.20
2022-11-24T13:12:27.220Z,4.22
2022-11-24T13:15:43.362Z,4.13
2022-11-24T13:18:47.925Z,5.10
2022-11-24T13:21:57.927Z,4.60
2022-11-24T13:24:46.393Z,4.20
2022-11-24T13:27:43.782Z,3.80
2022-11-24T13:31:08.468Z,4.30
2022-11-24T13:33:58.553Z,5.07
2022-11-24T13:36:54.789Z,3.20
2022-11-24T13:39:50.671Z,3.45
2022-11-24T13:43:23.590Z,4.35
2022-11-24T13:46:12.084Z,4.53
2022-11-24T13:49:01.853Z,4.13
2022-11-24T13:51:52.751Z,3.63
2022-11-24T13:54:42.847Z,4.00
2022-11-24T13:57:35.327Z,4.07
2022-11-24T14:00:25.785Z,4.95
2022-11-24T14:03:21.952Z,4.30
2022-11-24T14:06:17.948Z,3.78
2022-11-24T14:09:21.200Z,3.40
2022-11-24T14:12:15.441Z,4.30
2022-11-24T14:15:23.579Z,3.72
2022-11-24T14:18:18.721Z,3.13
2022-11-24T14:21:25.012Z,4.03
2022-11-24T14:24:20.888Z,3.65
2022-11-24T14:27:15.446Z,3.80
2022-11-24T14:30:17.542Z,3.83
2022-11-24T14:33:12.240Z,3.50
2022-11-24T14:36:00.671Z,4.70
2022-11-24T14:38:50.388Z,5.93
2022-11-24T14:41:38.774Z,4.80
2022-11-24T14:44:29.750Z,4.57
2022-11-24T14:47:30.123Z,5.22
2022-11-24T14:50:23.688Z,9.50
2022-11-24T14:53:16.256Z,8.80
2022-11-24T14:56:25.945Z,7.47
2022-11-24T14:59:23.284Z,8.50
2022-11-24T15:02:40.609Z,8.25
2022-11-24T15:05:52.323Z,9.60
2022-11-24T15:08:46.596Z,7.82
2022-11-24T15:11:36.572Z,6.95
2022-11-24T15:14:35.143Z,6.35
2022-11-24T15:17:26.286Z,4.88
2022-11-24T15:20:20.998Z,4.90
2022-11-24T15:23:27.015Z,4.20
2022-11-24T15:26:30.796Z,3.85
2022-11-24T15:29:22.846Z,4.78
2022-11-24T15:32:14.992Z,4.85
2022-11-24T15:35:03.292Z,4.82
2022-11-24T15:37:52.025Z,4.25
2022-11-24T15:40:41.902Z,3.97
2022-11-24T15:43:32.335Z,4.88
2022-11-24T15:46:22.078Z,5.10
2022-11-24T15:49:10.500Z,4.03
2022-11-24T15:51:58.929Z,5.00
2022-11-24T15:54:55.554Z,16.80
2022-11-24T15:57:44.003Z,18.05
2022-11-24T16:00:32.711Z,14.20
2022-11-24T16:03:46.248Z,9.48
2022-11-24T16:06:30.948Z,6.90
2022-11-24T16:09:19.270Z,6.38
2022-11-24T16:12:08.230Z,8.25
2022-11-24T16:14:56.588Z,6.63
2022-11-24T16:17:44.993Z,7.75
2022-11-24T16:20:36.121Z,19.23
2022-11-24T16:26:12.655Z,12.00
2022-11-24T16:29:01.018Z,13.05
2022-11-24T16:31:50.443Z,14.40
2022-11-24T16:34:38.825Z,16.83
2022-11-24T16:37:28.488Z,16.00
2022-11-24T16:40:18.228Z,14.95
2022-11-24T16:43:06.557Z,20.13
2022-11-24T16:46:06.112Z,26.60
2022-11-24T16:48:55.999Z,24.17
2022-11-24T16:51:44.370Z,24.88
2022-11-24T16:54:34.273Z,40.55
2022-11-24T16:57:22.857Z,23.70
2022-11-24T17:00:12.303Z,25.10
2022-11-24T17:03:00.622Z,18.10
2022-11-24T17:05:58.063Z,18.70
2022-11-24T17:08:47.410Z,18.63
2022-11-24T17:11:37.182Z,17.50
2022-11-24T17:14:25.816Z,12.27
2022-11-24T17:17:14.163Z,18.23
2022-11-24T17:20:02.492Z,16.15
2022-11-24T17:22:50.845Z,14.70
2022-11-24T17:25:39.232Z,13.38
2022-11-24T17:28:28.947Z,12.40
2022-11-24T17:31:21.371Z,14.00
2022-11-24T17:34:12.895Z,14.43
2022-11-24T17:37:01.241Z,13.70
2022-11-24T17:40:05.979Z,13.63
2022-11-24T17:43:00.300Z,12.57
2022-11-24T17:45:55.718Z,17.80
2022-11-24T17:48:44.141Z,15.65
2022-11-24T17:51:32.541Z,14.50
2022-11-24T17:57:29.500Z,13.63
2022-11-24T18:00:18.670Z,14.13
2022-11-24T18:03:08.349Z,17.23
2022-11-24T18:05:56.737Z,24.88
2022-11-24T18:08:46.594Z,14.27
2022-11-24T18:11:34.991Z,14.32
2022-11-24T18:14:23.380Z,13.73
2022-11-24T18:17:11.727Z,13.20
2022-11-24T18:20:01.473Z,13.95
2022-11-24T18:23:04.952Z,12.73
2022-11-24T18:25:54.508Z,16.00
2022-11-24T18:28:43.202Z,15.55
2022-11-24T18:31:32.393Z,14.18
2022-11-24T18:34:20.834Z,14.43
2022-11-24T18:37:13.443Z,16.60
2022-11-24T18:40:01.804Z,14.88
2022-11-24T18:42:50.220Z,14.63
2022-11-24T18:45:39.580Z,15.98
2022-11-24T18:48:28.125Z,15.73
2022-11-24T18:51:16.478Z,14.05
2022-11-24T18:54:06.443Z,15.70
2022-11-24T18:56:57.779Z,19.30
2022-11-24T18:59:50.116Z,19.83
2022-11-24T19:02:38.666Z,19.33
2022-11-24T19:05:27.107Z,16.33
2022-11-24T19:08:15.465Z,17.92
2022-11-24T19:11:05.346Z,20.13
2022-11-24T19:13:53.688Z,20.17
2022-11-24T19:16:42.713Z,19.35
2022-11-24T19:19:34.190Z,19.25
2022-11-24T19:22:23.714Z,17.40
2022-11-24T19:25:12.075Z,19.02
2022-11-24T19:28:01.769Z,18.52
2022-11-24T19:30:54.192Z,18.05
2022-11-24T19:33:43.084Z,17.20
2022-11-24T19:36:31.461Z,17.70
2022-11-24T19:39:19.852Z,15.45
2022-11-24T19:42:08.193Z,15.98
2022-11-24T19:44:57.903Z,14.13
2022-11-24T19:47:46.260Z,14.63
2022-11-24T19:50:34.636Z,13.23
2022-11-24T19:53:23.028Z,12.80
2022-11-24T19:56:13.187Z,11.50
2022-11-24T19:59:02.084Z,11.55
2022-11-24T20:01:51.948Z,12.35
2022-11-24T20:04:42.855Z,10.80
2022-11-24T20:07:31.229Z,11.23
2022-11-24T20:10:19.671Z,11.60
2022-11-24T20:13:08.024Z,11.05
2022-11-24T20:15:56.331Z,10.27
2022-11-24T20:18:47.775Z,11.10
2022-11-24T20:21:37.512Z,12.35
2022-11-24T20:24:26.175Z,12.82
2022-11-24T20:27:15.857Z,10.48
2022-11-24T20:30:04.537Z,11.30
2022-11-24T20:32:52.842Z,10.13
2022-11-24T20:35:42.631Z,9.90
2022-11-24T20:38:31.144Z,10.45
2022-11-24T20:41:21.378Z,10.00
2022-11-24T20:44:13.635Z,10.20
2022-11-24T20:47:03.293Z,9.73
2022-11-24T20:49:51.599Z,10.40
2022-11-24T20:52:41.327Z,9.98
2022-11-24T20:55:29.705Z,9.75
2022-11-24T20:58:18.226Z,9.40
2022-11-24T21:01:08.027Z,9.77
2022-11-24T21:03:58.885Z,9.98
2022-11-24T21:06:47.824Z,10.13
2022-11-24T21:09:38.282Z,10.10
2022-11-24T21:12:26.595Z,9.13
2022-11-24T21:15:15.087Z,9.52
2022-11-24T21:18:03.556Z,10.07
2022-11-24T21:20:51.931Z,9.95
2022-11-24T21:23:40.353Z,12.07
2022-11-24T21:26:30.320Z,10.38
2022-11-24T21:29:20.267Z,10.15
2022-11-24T21:32:08.770Z,9.80
2022-11-24T21:34:57.164Z,9.88
2022-11-24T21:37:45.574Z,10.85
2022-11-24T21:40:33.908Z,10.40
2022-11-24T21:43:23.710Z,10.80
2022-11-24T21:46:12.872Z,11.32
2022-11-24T21:49:01.306Z,10.50
2022-11-24T21:51:55.078Z,11.13
2022-11-24T21:54:43.436Z,10.23
2022-11-24T21:57:31.762Z,10.27
2022-11-24T22:00:22.269Z,10.82
2022-11-24T22:03:10.624Z,11.75
2022-11-24T22:06:00.585Z,10.57
2022-11-24T22:08:49.859Z,10.52
2022-11-24T22:11:38.157Z,9.82
2022-11-24T22:14:26.530Z,10.00
2022-11-24T22:17:16.196Z,10.57
2022-11-24T22:20:05.020Z,10.10
2022-11-24T22:22:54.128Z,9.60
2022-11-24T22:25:42.445Z,9.95
2022-11-24T22:28:32.447Z,9.85
2022-11-24T22:31:22.721Z,10.30
2022-11-24T22:34:12.413Z,9.63
2022-11-24T22:37:00.775Z,9.45
2022-11-24T22:39:49.093Z,10.77
2022-11-24T22:42:37.405Z,10.45
2022-11-24T22:45:25.840Z,11.13
2022-11-24T22:48:14.572Z,10.43
2022-11-24T22:51:05.884Z,10.23
2022-11-24T22:53:56.399Z,10.70
2022-11-24T22:56:44.752Z,8.32
2022-11-24T22:59:33.102Z,9.93
2022-11-24T23:02:21.448Z,10.25
2022-11-24T23:05:10.333Z,10.63
2022-11-24T23:08:00.034Z,10.20
2022-11-24T23:10:48.546Z,11.10
2022-11-24T23:13:37.203Z,12.35
2022-11-24T23:16:26.000Z,11.73
2022-11-24T23:19:14.342Z,12.13
2022-11-24T23:22:02.677Z,12.40
2022-11-24T23:24:52.632Z,11.10
2022-11-24T23:27:40.928Z,12.32
2022-11-24T23:30:29.295Z,11.88
2022-11-24T23:33:17.627Z,12.02
2022-11-24T23:36:08.646Z,11.82
2022-11-24T23:38:57.067Z,11.52
2022-11-24T23:41:46.747Z,9.95
2022-11-24T23:44:35.480Z,9.70
2022-11-24T23:47:23.948Z,10.23
2022-11-24T23:50:12.720Z,9.70
2022-11-24T23:53:01.090Z,10.43
2022-11-24T23:55:54.427Z,10.68
2022-11-24T23:58:44.576Z,10.95
